Battle Ground, Washington
Current Conditions -  °F | °C
As of 10:53 AM on Friday 21 Nov 2014 (Local Time) from KVUO Reporting Station
Light Rain Light Rain  
Wind Chill: 37°   Ceiling: 6000
Heat Index: 43°   Visibility: 5mi
Dew Point: 39°   Wind: 10mph
Humidity: 86%   Direction: 120°ESE
Pressure: 29.75"   Gusts: NA
Location:  45.78°N, 122.53°W
Report Text: KVUO 211853Z AUTO 12009KT 5SM -RA BR FEW041 OVC060 06/04 A2975 RMK AO2 SLP076 P0003 T00610039
Loading
Personal Weather Stations






























Interactive Weather Map New forecast layout! Learn more

10-Day Weather Forecast

Advertisements
Track Severe Weather on mobile